createdAt,value
2023-04-28T00:01:54.979Z,100657.13
2023-04-28T00:04:24.047Z,100651.97
2023-04-28T00:06:51.746Z,100648.44
2023-04-28T00:09:19.081Z,100648.38
2023-04-28T00:11:46.704Z,100652.78
2023-04-28T00:14:14.484Z,100642.47
2023-04-28T00:16:41.940Z,100640.94
2023-04-28T00:19:09.653Z,100642.56
2023-04-28T00:21:38.306Z,100635.91
2023-04-28T00:24:06.294Z,100633.47
2023-04-28T00:26:34.044Z,100627.63
2023-04-28T00:29:01.345Z,100625.22
2023-04-28T00:31:28.548Z,100628.78
2023-04-28T00:33:55.926Z,100632.78
2023-04-28T00:36:23.150Z,100627.66
2023-04-28T00:38:54.267Z,100629.25
2023-04-28T00:41:21.619Z,100628.44
2023-04-28T00:43:50.137Z,100628.06
2023-04-28T00:46:21.883Z,100630.88
2023-04-28T00:48:49.707Z,100623.00
2023-04-28T00:51:17.818Z,100624.22
2023-04-28T00:53:46.073Z,100621.81
2023-04-28T00:56:15.244Z,100615.19
2023-04-28T00:58:43.314Z,100611.16
2023-04-28T01:01:10.950Z,100612.03
2023-04-28T01:03:39.913Z,100611.97
2023-04-28T01:06:09.446Z,100608.91
2023-04-28T01:08:38.641Z,100609.69
2023-04-28T01:11:09.490Z,100610.88
2023-04-28T01:14:00.665Z,100607.00
2023-04-28T01:16:31.667Z,100601.50
2023-04-28T01:19:00.903Z,100603.41
2023-04-28T01:21:30.880Z,100605.06
2023-04-28T01:24:00.242Z,100603.53
2023-04-28T01:26:28.550Z,100594.00
2023-04-28T01:28:55.777Z,100599.53
2023-04-28T01:31:23.323Z,100597.22
2023-04-28T01:33:50.531Z,100581.41
2023-04-28T01:36:17.791Z,100585.75
2023-04-28T01:38:45.102Z,100580.75
2023-04-28T01:41:15.402Z,100582.28
2023-04-28T01:43:42.959Z,100575.97
2023-04-28T01:46:10.265Z,100574.88
2023-04-28T01:48:37.561Z,100570.53
2023-04-28T01:51:04.876Z,100566.25
2023-04-28T01:53:32.249Z,100565.06
2023-04-28T01:55:59.638Z,100559.53
2023-04-28T01:58:28.290Z,100552.88
2023-04-28T02:00:56.554Z,100554.84
2023-04-28T02:03:24.075Z,100546.16
2023-04-28T02:05:51.368Z,100545.31
2023-04-28T02:08:19.032Z,100548.56
2023-04-28T02:10:46.288Z,100539.06
2023-04-28T02:13:13.659Z,100535.19
2023-04-28T02:15:42.933Z,100542.63
2023-04-28T02:18:10.607Z,100547.72
2023-04-28T02:20:40.635Z,100546.22
2023-04-28T02:23:08.976Z,100540.31
2023-04-28T02:25:36.178Z,100543.09
2023-04-28T02:28:04.262Z,100550.19
2023-04-28T02:30:35.060Z,100540.25
2023-04-28T02:33:03.911Z,100543.47
2023-04-28T02:35:31.381Z,100557.69
2023-04-28T02:37:58.928Z,100545.84
2023-04-28T02:40:26.205Z,100547.84
2023-04-28T02:42:53.501Z,100556.47
2023-04-28T02:45:20.826Z,100557.19
2023-04-28T02:47:48.349Z,100559.66
2023-04-28T02:50:19.079Z,100560.41
2023-04-28T02:52:48.408Z,100561.22
2023-04-28T02:55:16.577Z,100556.09
2023-04-28T02:57:44.240Z,100554.94
2023-04-28T03:00:12.832Z,100555.78
2023-04-28T03:02:46.725Z,100555.81
2023-04-28T03:05:14.309Z,100562.84
2023-04-28T03:07:42.947Z,100565.25
2023-04-28T03:10:10.757Z,100557.41
2023-04-28T03:12:38.403Z,100562.16
2023-04-28T03:15:07.373Z,100566.13
2023-04-28T03:17:36.102Z,100566.56
2023-04-28T03:20:03.848Z,100555.06
2023-04-28T03:22:31.918Z,100560.66
2023-04-28T03:25:00.659Z,100553.56
2023-04-28T03:27:29.395Z,100546.13
2023-04-28T03:29:57.795Z,100544.91
2023-04-28T03:32:25.138Z,100543.38
2023-04-28T03:34:52.955Z,100542.97
2023-04-28T03:37:20.182Z,100544.91
2023-04-28T03:39:47.518Z,100550.44
2023-04-28T03:42:16.254Z,100546.91
2023-04-28T03:45:18.928Z,100537.84
2023-04-28T03:47:46.703Z,100546.47
2023-04-28T03:50:13.959Z,100532.25
2023-04-28T03:52:41.381Z,100536.19
2023-04-28T03:55:09.498Z,100551.94
2023-04-28T03:57:38.090Z,100554.97
2023-04-28T04:00:06.597Z,100563.75
2023-04-28T04:02:42.722Z,100574.72
2023-04-28T04:05:10.443Z,100601.47
2023-04-28T04:07:38.074Z,100612.50
2023-04-28T04:10:07.409Z,100621.22
2023-04-28T04:12:39.046Z,100624.34
2023-04-28T04:15:08.120Z,100639.31
2023-04-28T04:17:35.715Z,100656.28
2023-04-28T04:20:03.140Z,100661.44
2023-04-28T04:22:30.461Z,100659.03
2023-04-28T04:24:57.819Z,100663.78
2023-04-28T04:27:26.963Z,100667.28
2023-04-28T04:29:56.083Z,100686.59
2023-04-28T04:32:23.606Z,100691.31
2023-04-28T04:34:50.947Z,100705.50
2023-04-28T04:37:18.780Z,100723.22
2023-04-28T04:39:52.800Z,100737.41
2023-04-28T04:42:25.406Z,100735.78
2023-04-28T04:45:24.275Z,100752.31
2023-04-28T04:47:52.534Z,100773.22
2023-04-28T04:50:20.013Z,100786.59
2023-04-28T04:52:47.506Z,100828.44
2023-04-28T04:55:15.293Z,100837.84
2023-04-28T04:57:43.136Z,100879.69
2023-04-28T05:00:19.014Z,100907.69
2023-04-28T05:02:48.467Z,100931.34
2023-04-28T05:05:21.937Z,100934.91
2023-04-28T05:08:06.838Z,100958.94
2023-04-28T05:10:35.842Z,100971.94
2023-04-28T05:13:04.310Z,100986.13
2023-04-28T05:15:32.018Z,101014.56
2023-04-28T05:18:29.705Z,101033.13
2023-04-28T05:20:57.268Z,101047.72
2023-04-28T05:23:24.566Z,101061.09
2023-04-28T05:25:54.796Z,101070.19
2023-04-28T05:28:22.235Z,101090.72
2023-04-28T05:30:53.116Z,101102.13
2023-04-28T05:33:20.383Z,101117.09
2023-04-28T05:35:49.948Z,101132.09
2023-04-28T05:38:17.589Z,101138.69
2023-04-28T05:40:45.777Z,101146.53
2023-04-28T05:43:13.633Z,101157.22
2023-04-28T05:45:41.122Z,101174.16
2023-04-28T05:48:08.606Z,101176.03
2023-04-28T05:50:38.349Z,101184.31
2023-04-28T05:53:07.782Z,101192.53
2023-04-28T05:55:35.264Z,101205.97
2023-04-28T05:58:02.913Z,101210.59
2023-04-28T06:00:30.263Z,101216.06
2023-04-28T06:03:00.468Z,101232.59
2023-04-28T06:05:28.331Z,101243.63
2023-04-28T06:07:56.519Z,101246.28
2023-04-28T06:10:26.329Z,101255.94
2023-04-28T06:12:53.600Z,101261.56
2023-04-28T06:15:20.923Z,101267.81
2023-04-28T06:17:48.255Z,101273.38
2023-04-28T06:20:16.222Z,101282.81
2023-04-28T06:22:45.089Z,101288.91
2023-04-28T06:25:12.674Z,101300.00
2023-04-28T06:27:46.618Z,101307.34
2023-04-28T06:30:18.207Z,101312.94
2023-04-28T06:32:45.898Z,101310.56
2023-04-28T06:35:13.444Z,101316.38
2023-04-28T06:37:40.797Z,101318.97
2023-04-28T06:40:08.908Z,101328.38
2023-04-28T06:42:37.272Z,101336.25
2023-04-28T06:45:13.501Z,101340.28
2023-04-28T06:47:40.940Z,101346.72
2023-04-28T06:50:10.488Z,101352.09
2023-04-28T06:52:39.493Z,101357.94
2023-04-28T06:55:08.565Z,101376.16
2023-04-28T06:57:36.121Z,101374.00
2023-04-28T07:00:03.839Z,101385.34
2023-04-28T07:02:32.707Z,101404.41
2023-04-28T07:05:00.134Z,101406.25
2023-04-28T07:07:27.702Z,101410.00
2023-04-28T07:09:55.058Z,101410.66
2023-04-28T07:12:22.977Z,101411.19
2023-04-28T07:14:50.239Z,101416.75
2023-04-28T07:17:17.647Z,101408.91
2023-04-28T07:19:46.263Z,101414.13
2023-04-28T07:22:13.504Z,101412.25
2023-04-28T07:24:40.774Z,101405.94
2023-04-28T07:27:09.601Z,101417.22
2023-04-28T07:29:36.778Z,101420.50
2023-04-28T07:32:06.682Z,101417.94
2023-04-28T07:34:34.981Z,101431.72
2023-04-28T07:37:03.990Z,101431.38
2023-04-28T07:39:31.522Z,101431.97
2023-04-28T07:41:59.502Z,101436.38
2023-04-28T07:44:26.888Z,101442.31
2023-04-28T07:46:54.252Z,101438.50
2023-04-28T07:49:21.664Z,101440.66
2023-04-28T07:51:48.900Z,101435.16
2023-04-28T07:54:17.917Z,101434.16
2023-04-28T07:56:45.566Z,101427.44
2023-04-28T07:59:12.884Z,101433.50
2023-04-28T08:01:40.344Z,101435.69
2023-04-28T08:04:08.071Z,101431.38
2023-04-28T08:06:35.559Z,101427.56
2023-04-28T08:09:03.158Z,101435.59
2023-04-28T08:11:31.906Z,101425.97
2023-04-28T08:13:59.395Z,101431.03
2023-04-28T08:16:27.100Z,101422.09
2023-04-28T08:18:54.904Z,101421.91
2023-04-28T08:21:22.227Z,101428.09
2023-04-28T08:23:49.631Z,101422.56
2023-04-28T08:26:16.792Z,101422.31
2023-04-28T08:28:45.496Z,101421.00
2023-04-28T08:31:12.881Z,101419.75
2023-04-28T08:33:40.202Z,101428.22
2023-04-28T08:36:07.924Z,101418.06
2023-04-28T08:38:35.528Z,101414.94
2023-04-28T08:41:04.282Z,101409.66
2023-04-28T08:43:33.058Z,101410.53
2023-04-28T08:46:06.374Z,101410.44
2023-04-28T08:48:40.204Z,101418.84
2023-04-28T08:51:07.818Z,101417.84
2023-04-28T08:53:59.215Z,101423.47
2023-04-28T08:56:27.899Z,101408.22
2023-04-28T08:58:55.505Z,101411.06
2023-04-28T09:01:24.185Z,101411.63
2023-04-28T09:03:54.055Z,101410.00
2023-04-28T09:06:21.492Z,101413.28
2023-04-28T09:08:49.112Z,101409.69
2023-04-28T09:11:16.603Z,101412.88
2023-04-28T09:13:43.776Z,101411.13
2023-04-28T09:16:11.856Z,101403.63
2023-04-28T09:18:55.402Z,101410.13
2023-04-28T09:21:22.697Z,101409.34
2023-04-28T09:23:50.408Z,101412.00
2023-04-28T09:26:17.791Z,101409.78
2023-04-28T09:28:45.092Z,101415.59
2023-04-28T09:31:23.179Z,101412.16
2023-04-28T09:33:58.362Z,101409.34
2023-04-28T09:36:28.951Z,101413.41
2023-04-28T09:38:58.493Z,101416.09
2023-04-28T09:41:36.129Z,101409.03
2023-04-28T09:44:14.317Z,101404.66
2023-04-28T09:46:42.006Z,101406.56
2023-04-28T09:49:11.175Z,101402.03
2023-04-28T09:51:38.700Z,101395.88
2023-04-28T09:54:06.308Z,101404.34
2023-04-28T09:56:35.378Z,101400.94
2023-04-28T09:59:02.900Z,101400.72
2023-04-28T10:01:33.403Z,101399.00
2023-04-28T10:04:01.803Z,101391.84
2023-04-28T10:06:30.819Z,101388.69
2023-04-28T10:08:58.671Z,101384.97
2023-04-28T10:11:27.187Z,101380.72
2023-04-28T10:13:54.690Z,101376.41
2023-04-28T10:16:22.913Z,101373.31
2023-04-28T10:18:51.271Z,101376.84
2023-04-28T10:21:20.124Z,101367.91
2023-04-28T10:24:05.360Z,101376.00
2023-04-28T10:27:07.875Z,101366.09
2023-04-28T10:29:36.213Z,101368.97
2023-04-28T10:32:17.527Z,101360.72
2023-04-28T10:34:45.309Z,101364.81
2023-04-28T10:37:12.780Z,101363.78
2023-04-28T10:39:41.497Z,101359.09
2023-04-28T10:42:53.628Z,101358.16
2023-04-28T10:45:58.272Z,101344.19
2023-04-28T10:48:55.901Z,101341.69
2023-04-28T10:51:30.573Z,101338.53
2023-04-28T10:54:24.931Z,101335.09
2023-04-28T10:57:21.976Z,101327.34
2023-04-28T10:59:49.993Z,101332.50
2023-04-28T11:02:36.680Z,101326.91
2023-04-28T11:05:14.792Z,101317.06
2023-04-28T11:08:29.755Z,101311.81
2023-04-28T11:11:19.862Z,101315.00
2023-04-28T11:13:49.219Z,101320.81
2023-04-28T11:16:18.725Z,101317.44
2023-04-28T11:18:55.470Z,101312.88
2023-04-28T11:21:24.803Z,101307.69
2023-04-28T11:23:52.372Z,101303.16
2023-04-28T11:26:20.379Z,101288.44
2023-04-28T11:28:50.698Z,101291.22
2023-04-28T11:31:19.172Z,101290.56
2023-04-28T11:33:49.763Z,101293.06
2023-04-28T11:36:33.560Z,101286.72
2023-04-28T11:39:01.397Z,101285.44
2023-04-28T11:41:28.638Z,101282.53
2023-04-28T11:43:57.513Z,101283.91
2023-04-28T11:46:26.109Z,101287.63
2023-04-28T11:49:01.042Z,101286.03
2023-04-28T11:51:33.828Z,101285.66
2023-04-28T11:54:01.883Z,101290.59
2023-04-28T11:56:30.242Z,101288.59
2023-04-28T11:59:07.228Z,101283.47
2023-04-28T12:01:43.896Z,101289.50
2023-04-28T12:04:11.645Z,101290.81
2023-04-28T12:06:39.263Z,101289.59
2023-04-28T12:09:16.108Z,101272.13
2023-04-28T12:11:53.081Z,101274.03
2023-04-28T12:14:21.865Z,101270.63
2023-04-28T12:16:49.132Z,101265.50
2023-04-28T12:19:17.441Z,101265.31
2023-04-28T12:21:58.725Z,101258.44
2023-04-28T12:24:26.329Z,101258.69
2023-04-28T12:26:54.074Z,101252.44
2023-04-28T12:29:40.447Z,101243.44
2023-04-28T12:32:08.900Z,101236.38
2023-04-28T12:34:37.142Z,101242.94
2023-04-28T12:37:04.729Z,101245.66
2023-04-28T12:39:32.908Z,101235.28
2023-04-28T12:42:00.433Z,101246.25
2023-04-28T12:44:27.963Z,101243.44
2023-04-28T12:46:56.584Z,101245.13
2023-04-28T12:49:23.862Z,101246.84
2023-04-28T12:51:51.638Z,101244.06
2023-04-28T12:54:18.880Z,101234.69
2023-04-28T12:56:46.209Z,101234.06
2023-04-28T12:59:13.565Z,101234.97
2023-04-28T13:01:41.220Z,101231.88
2023-04-28T13:04:10.334Z,101224.53
2023-04-28T13:06:37.816Z,101225.63
2023-04-28T13:09:05.188Z,101220.81
2023-04-28T13:11:32.478Z,101200.50
2023-04-28T13:13:59.690Z,101204.16
2023-04-28T13:16:27.013Z,101198.31
2023-04-28T13:18:55.133Z,101192.28
2023-04-28T13:21:24.293Z,101192.44
2023-04-28T13:23:52.115Z,101194.22
2023-04-28T13:26:19.674Z,101193.44
2023-04-28T13:28:47.228Z,101199.03
2023-04-28T13:31:14.900Z,101192.47
2023-04-28T13:33:42.385Z,101187.78
2023-04-28T13:36:09.819Z,101179.66
2023-04-28T13:38:38.697Z,101185.59
2023-04-28T13:41:06.051Z,101177.44
2023-04-28T13:43:33.361Z,101178.56
2023-04-28T13:46:00.707Z,101174.16
2023-04-28T13:48:28.014Z,101176.91
2023-04-28T13:50:55.672Z,101172.34
2023-04-28T13:53:23.013Z,101174.03
2023-04-28T13:55:51.848Z,101177.28
2023-04-28T13:58:19.278Z,101163.88
2023-04-28T14:00:46.715Z,101167.47
2023-04-28T14:03:14.319Z,101163.69
2023-04-28T14:05:48.927Z,101154.09
2023-04-28T14:08:17.669Z,101150.97
2023-04-28T14:10:47.042Z,101145.00
2023-04-28T14:13:16.176Z,101148.00
2023-04-28T14:15:51.205Z,101138.69
2023-04-28T14:18:24.928Z,101128.91
2023-04-28T14:20:52.159Z,101122.41
2023-04-28T14:23:19.374Z,101112.78
2023-04-28T14:25:46.643Z,101118.59
2023-04-28T14:28:16.323Z,101109.47
2023-04-28T14:30:43.592Z,101096.50
2023-04-28T14:33:10.961Z,101094.44
2023-04-28T14:35:38.328Z,101082.47
2023-04-28T14:38:05.754Z,101087.66
2023-04-28T14:40:33.063Z,101081.72
2023-04-28T14:43:00.520Z,101081.03
2023-04-28T14:45:29.296Z,101086.75
2023-04-28T14:47:57.187Z,101093.25
2023-04-28T14:50:24.768Z,101090.31
2023-04-28T14:52:51.999Z,101090.91
2023-04-28T14:55:19.449Z,101080.84
2023-04-28T14:57:46.684Z,101079.06
2023-04-28T15:00:15.252Z,101068.75
2023-04-28T15:02:44.005Z,101070.47
2023-04-28T15:05:11.718Z,101077.25
2023-04-28T15:07:39.201Z,101074.34
2023-04-28T15:10:07.863Z,101071.16
2023-04-28T15:12:35.232Z,101066.69
2023-04-28T15:15:02.513Z,101072.50
2023-04-28T15:17:30.293Z,101066.47
2023-04-28T15:19:59.197Z,101066.97
2023-04-28T15:22:26.628Z,101062.47
2023-04-28T15:24:53.981Z,101065.75
2023-04-28T15:27:21.528Z,101071.69
2023-04-28T15:29:48.797Z,101082.31
2023-04-28T15:32:16.213Z,101082.78
2023-04-28T15:34:43.494Z,101086.06
2023-04-28T15:37:41.613Z,101082.38
2023-04-28T15:40:11.310Z,101071.59
2023-04-28T15:42:38.748Z,101031.91
2023-04-28T15:45:07.687Z,100965.38
2023-04-28T15:47:35.294Z,100874.88
2023-04-28T15:50:02.600Z,100788.19
2023-04-28T15:52:31.595Z,100725.94
2023-04-28T15:54:59.230Z,100660.72
2023-04-28T15:57:26.511Z,100616.38
2023-04-28T15:59:53.756Z,100582.78
2023-04-28T16:02:22.090Z,100544.53
2023-04-28T16:04:49.704Z,100527.44
2023-04-28T16:07:17.151Z,100507.22
2023-04-28T16:09:45.923Z,100459.94
2023-04-28T16:12:13.202Z,100446.44
2023-04-28T16:14:40.587Z,100426.06
2023-04-28T16:17:08.077Z,100421.69
2023-04-28T16:19:35.506Z,100391.72
2023-04-28T16:22:02.917Z,100369.19
2023-04-28T16:24:30.424Z,100352.41
2023-04-28T16:26:59.062Z,100325.06
2023-04-28T16:29:26.440Z,100290.88
2023-04-28T16:31:54.620Z,100241.66
2023-04-28T16:34:21.859Z,100163.53
2023-04-28T16:36:49.099Z,100115.13
2023-04-28T16:39:18.228Z,100084.41
2023-04-28T16:41:45.571Z,100048.84
2023-04-28T16:44:15.316Z,100042.97
2023-04-28T16:46:43.858Z,100018.28
2023-04-28T16:49:11.175Z,100003.53
2023-04-28T16:51:38.525Z,99976.63
2023-04-28T16:54:05.827Z,99960.78
2023-04-28T16:56:33.139Z,99944.66
2023-04-28T16:59:00.393Z,99933.31
2023-04-28T17:01:31.591Z,99921.41
2023-04-28T17:03:59.621Z,99902.31
2023-04-28T17:06:27.033Z,99885.06
2023-04-28T17:08:54.232Z,99868.13
2023-04-28T17:11:21.456Z,99836.50
2023-04-28T17:13:48.901Z,99810.28
2023-04-28T17:16:16.183Z,99806.44
2023-04-28T17:18:44.719Z,99800.25
2023-04-28T17:21:12.125Z,99792.94
2023-04-28T17:23:39.742Z,99780.56
2023-04-28T17:26:07.043Z,99757.25
2023-04-28T17:28:34.360Z,99723.16
2023-04-28T17:31:01.883Z,99685.66
2023-04-28T17:33:29.703Z,99646.09
2023-04-28T17:35:58.694Z,99610.25
2023-04-28T17:38:26.204Z,99573.66
2023-04-28T17:40:53.391Z,99524.75
2023-04-28T17:43:20.753Z,99497.78
2023-04-28T17:45:48.081Z,99457.38
2023-04-28T17:48:15.603Z,99437.16
2023-04-28T17:50:43.006Z,99409.44
2023-04-28T17:53:11.714Z,99384.66
2023-04-28T17:55:39.831Z,99359.25
2023-04-28T17:58:07.652Z,99345.97
2023-04-28T18:00:35.065Z,99331.13
2023-04-28T18:03:02.730Z,99317.16
2023-04-28T18:05:30.453Z,99310.75
2023-04-28T18:08:01.118Z,99309.31
2023-04-28T18:10:30.059Z,99313.06
2023-04-28T18:12:58.036Z,99314.50
2023-04-28T18:15:25.477Z,99333.66
2023-04-28T18:17:52.986Z,99352.41
2023-04-28T18:20:20.366Z,99372.63
2023-04-28T18:22:47.558Z,99388.09
2023-04-28T18:25:14.960Z,99397.25
2023-04-28T18:27:43.659Z,99418.13
2023-04-28T18:30:11.415Z,99431.00
2023-04-28T18:32:38.683Z,99446.75
2023-04-28T18:35:06.336Z,99473.13
2023-04-28T18:37:33.599Z,99481.19
2023-04-28T18:40:00.868Z,99509.09
2023-04-28T18:42:28.213Z,99538.13
2023-04-28T18:44:57.106Z,99569.75
2023-04-28T18:47:24.575Z,99604.09
2023-04-28T18:49:52.333Z,99641.78
2023-04-28T18:52:19.649Z,99675.91
2023-04-28T18:54:46.890Z,99706.28
2023-04-28T18:57:16.463Z,99748.72
2023-04-28T18:59:43.686Z,99800.94
2023-04-28T19:02:12.294Z,99854.53
2023-04-28T19:04:39.729Z,99913.84
2023-04-28T19:07:07.470Z,99984.66
2023-04-28T19:09:34.800Z,100051.91
2023-04-28T19:12:02.095Z,100128.09
2023-04-28T19:14:29.418Z,100311.03
2023-04-28T19:16:56.740Z,100389.78
2023-04-28T19:19:25.935Z,100461.03
2023-04-28T19:21:53.227Z,100534.81
2023-04-28T19:24:20.798Z,100637.53
2023-04-28T19:26:48.046Z,100707.81
2023-04-28T19:29:15.590Z,100774.75
2023-04-28T19:31:42.960Z,100819.03
2023-04-28T19:34:10.850Z,100862.56
2023-04-28T19:36:39.805Z,100898.81
2023-04-28T19:39:07.392Z,100924.78
2023-04-28T19:41:35.548Z,100963.25
2023-04-28T19:44:02.799Z,101016.47
2023-04-28T19:46:30.082Z,101058.97
2023-04-28T19:48:57.338Z,101119.97
2023-04-28T19:51:24.586Z,101167.06
2023-04-28T19:53:53.333Z,101217.94
2023-04-28T19:56:20.616Z,101251.34
2023-04-28T19:58:48.078Z,101277.59
2023-04-28T20:01:15.524Z,101313.84
2023-04-28T20:03:43.334Z,101347.31
2023-04-28T20:06:15.226Z,101376.63
2023-04-28T20:08:42.496Z,101399.81
2023-04-28T20:11:11.299Z,101426.00
2023-04-28T20:13:38.573Z,101460.09
2023-04-28T20:16:06.284Z,101483.63
2023-04-28T20:18:34.649Z,101525.53
2023-04-28T20:21:01.791Z,101517.38
2023-04-28T20:23:29.015Z,101552.66
2023-04-28T20:25:56.381Z,101583.81
2023-04-28T20:28:25.168Z,101600.66
2023-04-28T20:30:52.408Z,101613.06
2023-04-28T20:33:19.715Z,101644.31
2023-04-28T20:35:46.919Z,101658.75
2023-04-28T20:38:14.319Z,101688.56
2023-04-28T20:40:41.516Z,101700.78
2023-04-28T20:43:08.974Z,101705.19
2023-04-28T20:45:37.570Z,101721.16
2023-04-28T20:48:05.105Z,101726.75
2023-04-28T20:50:32.261Z,101749.81
2023-04-28T20:52:59.532Z,101772.16
2023-04-28T20:55:26.794Z,101784.09
2023-04-28T20:57:54.091Z,101791.28
2023-04-28T21:00:21.415Z,101796.88
2023-04-28T21:02:50.469Z,101802.50
2023-04-28T21:05:18.032Z,101823.22
2023-04-28T21:07:45.647Z,101861.00
2023-04-28T21:10:13.222Z,101863.88
2023-04-28T21:12:40.505Z,101871.47
2023-04-28T21:15:08.300Z,101894.22
2023-04-28T21:17:36.964Z,101912.16
2023-04-28T21:20:07.147Z,101926.56
2023-04-28T21:22:34.487Z,101939.28
2023-04-28T21:25:01.712Z,101951.69
2023-04-28T21:27:28.987Z,101962.09
2023-04-28T21:29:56.350Z,101971.22
2023-04-28T21:32:23.700Z,101982.03
2023-04-28T21:34:51.068Z,102007.13
2023-04-28T21:37:19.960Z,101995.97
2023-04-28T21:39:47.212Z,101996.03
2023-04-28T21:42:14.474Z,102020.28
2023-04-28T21:44:41.723Z,102032.25
2023-04-28T21:47:09.266Z,102037.06
2023-04-28T21:49:36.501Z,102038.63
2023-04-28T21:52:03.917Z,102064.47
2023-04-28T21:54:32.760Z,102050.59
2023-04-28T21:57:00.153Z,102070.88
2023-04-28T21:59:27.684Z,102082.44
2023-04-28T22:01:55.554Z,102086.41
2023-04-28T22:04:23.104Z,102097.56
2023-04-28T22:06:50.911Z,102112.28
2023-04-28T22:09:18.235Z,102119.47
2023-04-28T22:11:46.907Z,102150.50
2023-04-28T22:14:30.490Z,102143.34
2023-04-28T22:17:01.481Z,102147.34
2023-04-28T22:19:28.740Z,102164.88
2023-04-28T22:21:56.049Z,102193.09
2023-04-28T22:24:23.451Z,102195.13
2023-04-28T22:26:52.081Z,102211.41
2023-04-28T22:29:19.341Z,102208.63
2023-04-28T22:31:46.704Z,102217.41
2023-04-28T22:34:13.989Z,102225.75
2023-04-28T22:36:41.271Z,102259.97
2023-04-28T22:39:08.669Z,102254.03
2023-04-28T22:41:36.080Z,102259.22
2023-04-28T22:44:05.135Z,102269.13
2023-04-28T22:46:32.679Z,102281.09
2023-04-28T22:49:00.061Z,102280.69
2023-04-28T22:51:27.310Z,102297.03
2023-04-28T22:53:54.592Z,102307.75
2023-04-28T22:56:22.469Z,102310.16
2023-04-28T22:58:49.856Z,102322.13
2023-04-28T23:01:18.673Z,102332.44
2023-04-28T23:03:46.122Z,102343.97
2023-04-28T23:06:13.610Z,102338.81
2023-04-28T23:08:41.273Z,102343.22
2023-04-28T23:11:08.573Z,102337.25
2023-04-28T23:13:35.856Z,102345.22
2023-04-28T23:16:03.254Z,102355.97
2023-04-28T23:18:33.096Z,102365.50
2023-04-28T23:21:00.754Z,102380.22
2023-04-28T23:23:28.086Z,102393.75
2023-04-28T23:25:55.367Z,102406.47
2023-04-28T23:28:22.572Z,102408.88
2023-04-28T23:30:49.802Z,102415.25
2023-04-28T23:33:17.336Z,102435.53
2023-04-28T23:35:46.132Z,102442.31
2023-04-28T23:38:13.358Z,102453.47
2023-04-28T23:40:40.679Z,102455.03
2023-04-28T23:43:07.892Z,102453.44
2023-04-28T23:45:35.249Z,102486.06
2023-04-28T23:48:02.421Z,102498.00
2023-04-28T23:50:29.699Z,102499.22
2023-04-28T23:52:58.274Z,102499.59
2023-04-28T23:55:25.484Z,102509.13
2023-04-28T23:57:52.659Z,102513.91
